createdAt,value
2022-11-10T00:00:14.927Z,0.00
2022-11-10T00:01:14.940Z,0.00
2022-11-10T00:02:14.918Z,0.00
2022-11-10T00:03:14.888Z,0.00
2022-11-10T00:04:14.950Z,0.00
2022-11-10T00:05:14.880Z,0.00
2022-11-10T00:06:14.892Z,0.00
2022-11-10T00:07:14.931Z,0.00
2022-11-10T00:08:14.858Z,0.00
2022-11-10T00:09:14.858Z,0.00
2022-11-10T00:10:14.831Z,0.00
2022-11-10T00:11:14.838Z,0.00
2022-11-10T00:12:14.822Z,0.00
2022-11-10T00:13:14.797Z,0.00
2022-11-10T00:14:14.786Z,0.00
2022-11-10T00:15:14.793Z,0.00
2022-11-10T00:16:14.780Z,0.00
2022-11-10T00:17:14.791Z,0.00
2022-11-10T00:18:14.759Z,0.00
2022-11-10T00:19:14.737Z,0.00
2022-11-10T00:20:14.724Z,0.00
2022-11-10T00:21:14.736Z,0.00
2022-11-10T00:22:14.703Z,0.00
2022-11-10T00:23:14.693Z,0.00
2022-11-10T00:24:14.699Z,0.00
2022-11-10T00:25:14.741Z,0.00
2022-11-10T00:26:14.682Z,0.00
2022-11-10T00:27:14.664Z,0.00
2022-11-10T00:28:14.632Z,0.00
2022-11-10T00:29:14.664Z,0.00
2022-11-10T00:30:14.611Z,0.00
2022-11-10T00:31:14.615Z,0.00
2022-11-10T00:32:14.624Z,0.00
2022-11-10T00:33:14.601Z,0.00
2022-11-10T00:34:14.592Z,0.00
2022-11-10T00:35:14.598Z,0.00
2022-11-10T00:36:14.551Z,0.00
2022-11-10T00:37:14.556Z,0.00
2022-11-10T00:38:14.558Z,0.00
2022-11-10T00:39:14.547Z,0.00
2022-11-10T00:40:14.528Z,0.00
2022-11-10T00:41:14.520Z,0.00
2022-11-10T00:42:14.491Z,0.00
2022-11-10T00:43:14.505Z,0.00
2022-11-10T00:44:14.516Z,0.00
2022-11-10T00:45:14.484Z,0.00
2022-11-10T00:46:14.445Z,0.00
2022-11-10T00:47:14.456Z,0.00
2022-11-10T00:48:14.501Z,0.00
2022-11-10T00:49:14.855Z,0.00
2022-11-10T00:50:14.414Z,0.00
2022-11-10T00:51:14.406Z,0.00
2022-11-10T00:52:14.386Z,0.00
2022-11-10T00:53:14.410Z,0.00
2022-11-10T00:54:14.402Z,0.00
2022-11-10T00:55:14.371Z,0.00
2022-11-10T00:56:14.356Z,0.00
2022-11-10T00:57:14.416Z,0.00
2022-11-10T00:58:14.462Z,0.00
2022-11-10T00:59:14.327Z,0.00
2022-11-10T01:00:14.335Z,0.00
2022-11-10T01:01:14.372Z,0.00
2022-11-10T01:02:14.306Z,0.00
2022-11-10T01:03:14.309Z,0.00
2022-11-10T01:04:14.281Z,0.00
2022-11-10T01:05:14.273Z,0.00
2022-11-10T01:06:14.263Z,0.00
2022-11-10T01:07:14.282Z,0.00
2022-11-10T01:08:14.234Z,0.00
2022-11-10T01:09:14.242Z,0.00
2022-11-10T01:10:14.211Z,0.00
2022-11-10T01:11:14.195Z,0.00
2022-11-10T01:12:14.186Z,0.00
2022-11-10T01:13:14.178Z,0.00
2022-11-10T01:14:14.181Z,0.00
2022-11-10T01:15:14.187Z,0.00
2022-11-10T01:16:14.162Z,0.00
2022-11-10T01:17:14.126Z,0.00
2022-11-10T01:18:14.155Z,0.00
2022-11-10T01:19:14.119Z,0.00
2022-11-10T01:20:14.133Z,0.00
2022-11-10T01:21:14.107Z,0.00
2022-11-10T01:22:14.108Z,0.00
2022-11-10T01:23:14.076Z,0.00
2022-11-10T01:24:14.101Z,0.00
2022-11-10T01:25:14.070Z,0.00
2022-11-10T01:26:14.080Z,0.00
2022-11-10T01:27:14.048Z,0.00
2022-11-10T01:28:14.046Z,0.00
2022-11-10T01:29:14.009Z,0.00
2022-11-10T01:30:14.032Z,0.00
2022-11-10T01:31:14.017Z,0.00
2022-11-10T01:32:14.011Z,0.00
2022-11-10T01:33:13.964Z,0.00
2022-11-10T01:34:13.976Z,0.00
2022-11-10T01:35:13.960Z,0.00
2022-11-10T01:36:13.953Z,0.00
2022-11-10T01:37:13.943Z,0.00
2022-11-10T01:38:13.955Z,0.00
2022-11-10T01:39:13.923Z,0.00
2022-11-10T01:40:13.974Z,0.00
2022-11-10T01:41:13.895Z,0.00
2022-11-10T01:42:13.991Z,0.00
2022-11-10T01:43:13.949Z,0.00
2022-11-10T01:44:13.875Z,0.00
2022-11-10T01:45:13.870Z,0.00
2022-11-10T01:46:13.859Z,0.00
2022-11-10T01:47:13.900Z,0.00
2022-11-10T01:48:13.889Z,0.00
2022-11-10T01:49:13.809Z,0.00
2022-11-10T01:50:13.805Z,0.00
2022-11-10T01:51:13.787Z,0.00
2022-11-10T01:52:13.807Z,0.00
2022-11-10T01:53:13.781Z,0.00
2022-11-10T01:54:13.760Z,0.00
2022-11-10T01:55:13.748Z,0.00
2022-11-10T01:56:13.770Z,0.00
2022-11-10T01:57:13.739Z,0.00
2022-11-10T01:58:13.730Z,0.00
2022-11-10T01:59:13.705Z,0.00
2022-11-10T02:00:13.742Z,0.00
2022-11-10T02:01:13.770Z,0.00
2022-11-10T02:02:13.711Z,0.00
2022-11-10T02:03:13.665Z,0.00
2022-11-10T02:04:13.669Z,0.00
2022-11-10T02:05:13.649Z,0.00
2022-11-10T02:06:13.657Z,0.00
2022-11-10T02:07:13.689Z,0.00
2022-11-10T02:08:13.619Z,0.00
2022-11-10T02:09:13.618Z,0.00
2022-11-10T02:10:13.599Z,0.00
2022-11-10T02:11:13.643Z,0.00
2022-11-10T02:12:13.576Z,0.00
2022-11-10T02:13:13.576Z,0.00
2022-11-10T02:14:13.560Z,0.00
2022-11-10T02:15:13.574Z,0.00
2022-11-10T02:16:13.578Z,0.00
2022-11-10T02:17:13.525Z,0.00
2022-11-10T02:18:13.552Z,0.00
2022-11-10T02:19:13.511Z,0.00
2022-11-10T02:20:13.513Z,0.00
2022-11-10T02:21:13.486Z,0.00
2022-11-10T02:22:13.500Z,0.00
2022-11-10T02:23:13.503Z,0.00
2022-11-10T02:24:13.499Z,0.00
2022-11-10T02:25:13.450Z,0.00
2022-11-10T02:26:13.439Z,0.00
2022-11-10T02:27:13.472Z,0.00
2022-11-10T02:28:13.418Z,0.00
2022-11-10T02:29:13.423Z,0.00
2022-11-10T02:30:13.412Z,0.00
2022-11-10T02:31:13.404Z,0.00
2022-11-10T02:32:13.378Z,0.00
2022-11-10T02:33:13.406Z,0.00
2022-11-10T02:34:13.404Z,0.00
2022-11-10T02:35:13.372Z,0.00
2022-11-10T02:36:13.334Z,0.00
2022-11-10T02:37:13.315Z,0.00
2022-11-10T02:38:13.340Z,0.00
2022-11-10T02:39:13.308Z,0.00
2022-11-10T02:40:13.324Z,0.00
2022-11-10T02:41:13.288Z,0.00
2022-11-10T02:42:13.307Z,0.00
2022-11-10T02:43:13.313Z,0.00
2022-11-10T02:44:13.294Z,0.00
2022-11-10T02:45:13.273Z,0.00
2022-11-10T02:46:13.271Z,0.00
2022-11-10T02:47:13.239Z,0.00
2022-11-10T02:48:13.249Z,0.00
2022-11-10T02:49:13.220Z,0.00
2022-11-10T02:50:13.272Z,0.00
2022-11-10T02:51:13.163Z,0.00
2022-11-10T02:52:13.225Z,0.00
2022-11-10T02:53:13.162Z,0.00
2022-11-10T02:54:13.155Z,0.00
2022-11-10T02:55:13.228Z,0.00
2022-11-10T02:56:13.144Z,0.00
2022-11-10T02:57:13.161Z,0.00
2022-11-10T02:58:13.132Z,0.00
2022-11-10T02:59:13.100Z,0.00
2022-11-10T03:00:13.125Z,0.00
2022-11-10T03:01:13.143Z,0.00
2022-11-10T03:02:13.112Z,0.00
2022-11-10T03:03:13.073Z,0.00
2022-11-10T03:04:13.050Z,0.00
2022-11-10T03:05:13.069Z,0.00
2022-11-10T03:06:13.039Z,0.00
2022-11-10T03:07:13.088Z,0.00
2022-11-10T03:08:13.021Z,0.00
2022-11-10T03:09:12.998Z,0.00
2022-11-10T03:10:13.005Z,0.00
2022-11-10T03:11:12.988Z,0.00
2022-11-10T03:12:12.986Z,0.00
2022-11-10T03:13:12.949Z,0.00
2022-11-10T03:14:12.937Z,0.00
2022-11-10T03:15:12.934Z,0.00
2022-11-10T03:16:12.965Z,0.00
2022-11-10T03:17:12.921Z,0.00
2022-11-10T03:18:12.896Z,0.00
2022-11-10T03:19:12.880Z,0.00
2022-11-10T03:20:12.916Z,0.00
2022-11-10T03:21:12.895Z,0.00
2022-11-10T03:22:12.881Z,0.00
2022-11-10T03:23:12.860Z,0.00
2022-11-10T03:24:12.848Z,0.00
2022-11-10T03:25:12.847Z,0.00
2022-11-10T03:26:12.843Z,0.00
2022-11-10T03:27:12.826Z,0.00
2022-11-10T03:28:12.839Z,0.00
2022-11-10T03:29:12.802Z,0.00
2022-11-10T03:30:12.784Z,0.00
2022-11-10T03:31:12.761Z,0.00
2022-11-10T03:32:12.795Z,0.00
2022-11-10T03:33:12.777Z,0.00
2022-11-10T03:34:12.759Z,0.00
2022-11-10T03:35:12.706Z,0.00
2022-11-10T03:36:12.720Z,0.00
2022-11-10T03:37:12.739Z,0.00
2022-11-10T03:38:12.714Z,0.00
2022-11-10T03:39:12.691Z,0.00
2022-11-10T03:40:12.696Z,0.00
2022-11-10T03:41:19.252Z,0.00
2022-11-10T03:42:12.718Z,0.00
2022-11-10T03:43:12.634Z,0.00
2022-11-10T03:44:12.637Z,0.00
2022-11-10T03:45:12.640Z,0.00
2022-11-10T03:46:12.620Z,0.00
2022-11-10T03:47:12.623Z,0.00
2022-11-10T03:48:12.613Z,0.00
2022-11-10T03:49:12.600Z,0.00
2022-11-10T03:50:12.590Z,0.00
2022-11-10T03:51:12.561Z,0.00
2022-11-10T03:52:12.603Z,0.00
2022-11-10T03:53:12.544Z,0.00
2022-11-10T03:54:12.537Z,0.00
2022-11-10T03:55:12.536Z,0.00
2022-11-10T03:56:12.551Z,0.00
2022-11-10T03:57:12.517Z,0.00
2022-11-10T03:58:12.518Z,0.00
2022-11-10T03:59:12.477Z,0.00
2022-11-10T04:00:12.467Z,0.00
2022-11-10T04:01:12.475Z,0.00
2022-11-10T04:02:12.550Z,0.00
2022-11-10T04:03:12.433Z,0.00
2022-11-10T04:04:12.455Z,0.00
2022-11-10T04:05:12.407Z,0.00
2022-11-10T04:06:12.409Z,0.00
2022-11-10T04:07:12.488Z,0.00
2022-11-10T04:08:12.388Z,0.00
2022-11-10T04:09:12.372Z,0.00
2022-11-10T04:10:12.397Z,0.00
2022-11-10T04:11:12.374Z,0.00
2022-11-10T04:12:12.341Z,0.00
2022-11-10T04:13:12.360Z,0.00
2022-11-10T04:14:12.337Z,0.00
2022-11-10T04:15:12.326Z,0.00
2022-11-10T04:16:12.339Z,0.00
2022-11-10T04:17:12.314Z,0.00
2022-11-10T04:18:12.289Z,0.00
2022-11-10T04:19:12.280Z,0.00
2022-11-10T04:20:12.290Z,0.00
2022-11-10T04:21:12.280Z,0.00
2022-11-10T04:22:12.241Z,0.00
2022-11-10T04:23:12.277Z,0.00
2022-11-10T04:24:12.255Z,0.00
2022-11-10T04:25:12.214Z,0.00
2022-11-10T04:26:12.226Z,0.00
2022-11-10T04:27:12.199Z,0.00
2022-11-10T04:28:12.218Z,0.00
2022-11-10T04:29:12.224Z,0.00
2022-11-10T04:30:12.164Z,0.00
2022-11-10T04:31:12.172Z,0.00
2022-11-10T04:32:12.143Z,0.00
2022-11-10T04:33:12.170Z,0.00
2022-11-10T04:34:12.161Z,0.00
2022-11-10T04:35:12.105Z,0.00
2022-11-10T04:36:12.109Z,0.00
2022-11-10T04:37:12.088Z,0.00
2022-11-10T04:38:12.093Z,0.00
2022-11-10T04:39:12.079Z,0.00
2022-11-10T04:40:12.087Z,0.00
2022-11-10T04:41:12.055Z,0.00
2022-11-10T04:42:12.086Z,0.00
2022-11-10T04:43:12.035Z,0.00
2022-11-10T04:44:12.104Z,0.00
2022-11-10T04:45:12.013Z,0.00
2022-11-10T04:46:12.004Z,0.00
2022-11-10T04:47:12.270Z,0.00
2022-11-10T04:48:12.012Z,0.00
2022-11-10T04:49:11.958Z,0.00
2022-11-10T04:50:12.008Z,0.00
2022-11-10T04:51:12.007Z,0.00
2022-11-10T04:52:11.940Z,0.00
2022-11-10T04:53:11.937Z,0.00
2022-11-10T04:54:11.928Z,0.00
2022-11-10T04:55:11.928Z,0.00
2022-11-10T04:56:11.926Z,0.00
2022-11-10T04:57:11.896Z,0.00
2022-11-10T04:58:11.893Z,0.00
2022-11-10T04:59:11.869Z,0.00
2022-11-10T05:00:11.857Z,0.00
2022-11-10T05:01:11.917Z,0.00
2022-11-10T05:02:11.836Z,0.00
2022-11-10T05:03:11.880Z,0.00
2022-11-10T05:04:11.822Z,0.00
2022-11-10T05:05:11.797Z,0.00
2022-11-10T05:06:11.847Z,0.00
2022-11-10T05:07:11.820Z,0.00
2022-11-10T05:08:11.779Z,0.00
2022-11-10T05:09:11.794Z,0.00
2022-11-10T05:10:11.774Z,0.00
2022-11-10T05:11:11.756Z,0.00
2022-11-10T05:12:11.747Z,0.00
2022-11-10T05:13:11.733Z,0.00
2022-11-10T05:14:11.705Z,0.00
2022-11-10T05:15:11.718Z,0.00
2022-11-10T05:16:11.720Z,0.00
2022-11-10T05:17:11.693Z,0.00
2022-11-10T05:18:11.656Z,0.00
2022-11-10T05:19:11.685Z,0.00
2022-11-10T05:20:11.700Z,0.00
2022-11-10T05:21:11.666Z,0.00
2022-11-10T05:22:11.633Z,0.00
2022-11-10T05:23:11.622Z,0.00
2022-11-10T05:24:11.618Z,0.00
2022-11-10T05:25:11.603Z,0.00
2022-11-10T05:26:11.622Z,0.00
2022-11-10T05:27:11.620Z,0.00
2022-11-10T05:28:11.558Z,0.00
2022-11-10T05:29:11.578Z,0.00
2022-11-10T05:30:11.530Z,0.00
2022-11-10T05:31:11.562Z,0.00
2022-11-10T05:32:11.567Z,0.00
2022-11-10T05:33:11.535Z,0.00
2022-11-10T05:34:11.514Z,0.00
2022-11-10T05:35:11.513Z,0.00
2022-11-10T05:36:11.498Z,0.00
2022-11-10T05:37:11.520Z,0.00
2022-11-10T05:38:11.486Z,0.00
2022-11-10T05:39:11.454Z,0.00
2022-11-10T05:40:11.459Z,0.00
2022-11-10T05:41:11.436Z,0.00
2022-11-10T05:42:11.489Z,0.00
2022-11-10T05:43:11.463Z,0.00
2022-11-10T05:44:11.427Z,0.00
2022-11-10T05:45:11.407Z,0.00
2022-11-10T05:46:11.374Z,0.00
2022-11-10T05:47:11.386Z,0.00
2022-11-10T05:48:11.376Z,0.00
2022-11-10T05:49:11.410Z,0.00
2022-11-10T05:50:11.340Z,0.00
2022-11-10T05:51:11.337Z,0.00
2022-11-10T05:52:11.346Z,0.00
2022-11-10T05:53:11.339Z,0.00
2022-11-10T05:54:11.312Z,0.00
2022-11-10T05:55:11.373Z,0.00
2022-11-10T05:56:11.295Z,0.00
2022-11-10T05:57:11.271Z,0.00
2022-11-10T05:58:11.251Z,0.00
2022-11-10T05:59:11.307Z,0.00
2022-11-10T06:00:11.243Z,0.00
2022-11-10T06:01:11.247Z,0.00
2022-11-10T06:02:11.247Z,0.00
2022-11-10T06:03:11.287Z,0.00
2022-11-10T06:04:11.158Z,1.00
2022-11-10T06:05:11.242Z,0.00
2022-11-10T06:06:11.231Z,0.00
2022-11-10T06:07:11.188Z,1.00
2022-11-10T06:08:11.090Z,1.00
2022-11-10T06:09:11.131Z,1.00
2022-11-10T06:10:11.088Z,1.00
2022-11-10T06:11:11.104Z,1.00
2022-11-10T06:12:11.070Z,2.00
2022-11-10T06:13:11.110Z,0.00
2022-11-10T06:14:11.080Z,2.00
2022-11-10T06:15:11.074Z,1.00
2022-11-10T06:16:11.026Z,1.00
2022-11-10T06:17:11.015Z,2.00
2022-11-10T06:18:11.008Z,1.00
2022-11-10T06:19:11.008Z,5.00
2022-11-10T06:20:10.967Z,6.00
2022-11-10T06:21:10.999Z,7.00
2022-11-10T06:22:10.979Z,6.00
2022-11-10T06:23:10.951Z,5.00
2022-11-10T06:24:10.956Z,8.00
2022-11-10T06:25:10.938Z,7.00
2022-11-10T06:26:10.926Z,11.00
2022-11-10T06:27:10.947Z,12.00
2022-11-10T06:28:10.930Z,13.00
2022-11-10T06:29:10.893Z,12.00
2022-11-10T06:30:10.863Z,14.00
2022-11-10T06:31:10.887Z,17.00
2022-11-10T06:32:10.901Z,22.00
2022-11-10T06:33:10.864Z,25.00
2022-11-10T06:34:10.827Z,31.00
2022-11-10T06:35:10.899Z,35.00
2022-11-10T06:36:10.825Z,38.00
2022-11-10T06:37:10.825Z,43.00
2022-11-10T06:38:10.852Z,56.00
2022-11-10T06:39:10.868Z,60.00
2022-11-10T06:40:10.798Z,74.00
2022-11-10T06:41:10.773Z,75.00
2022-11-10T06:42:10.763Z,76.00
2022-11-10T06:43:10.813Z,85.00
2022-11-10T06:44:10.790Z,88.00
2022-11-10T06:45:10.753Z,100.00
2022-11-10T06:46:10.703Z,100.00
2022-11-10T06:47:10.711Z,104.00
2022-11-10T06:48:10.728Z,116.00
2022-11-10T06:49:10.729Z,126.00
2022-11-10T06:50:10.684Z,134.00
2022-11-10T06:51:10.680Z,144.00
2022-11-10T06:52:10.647Z,149.00
2022-11-10T06:53:10.701Z,161.00
2022-11-10T06:54:10.634Z,168.00
2022-11-10T06:55:10.646Z,187.00
2022-11-10T06:56:10.616Z,193.00
2022-11-10T06:57:10.604Z,208.00
2022-11-10T06:58:10.623Z,210.00
2022-11-10T06:59:10.598Z,216.00
2022-11-10T07:00:10.577Z,230.00
2022-11-10T07:01:10.679Z,264.00
2022-11-10T07:02:10.557Z,270.00
2022-11-10T07:03:10.610Z,269.00
2022-11-10T07:04:19.562Z,274.00
2022-11-10T07:05:10.541Z,287.00
2022-11-10T07:06:10.509Z,299.00
2022-11-10T07:07:10.572Z,321.00
2022-11-10T07:08:10.498Z,332.00
2022-11-10T07:09:10.487Z,344.00
2022-11-10T07:10:10.476Z,357.00
2022-11-10T07:11:10.472Z,353.00
2022-11-10T07:12:10.480Z,422.00
2022-11-10T07:13:10.476Z,396.00
2022-11-10T07:14:10.455Z,421.00
2022-11-10T07:15:10.434Z,409.00
2022-11-10T07:16:10.408Z,431.00
2022-11-10T07:17:10.414Z,427.00
2022-11-10T07:18:10.421Z,445.00
2022-11-10T07:19:10.399Z,470.00
2022-11-10T07:20:10.402Z,487.00
2022-11-10T07:21:10.393Z,513.00
2022-11-10T07:22:11.415Z,576.00
2022-11-10T07:23:10.366Z,530.00
2022-11-10T07:24:10.332Z,529.00
2022-11-10T07:25:10.345Z,573.00
2022-11-10T07:26:10.343Z,545.00
2022-11-10T07:27:10.334Z,548.00
2022-11-10T07:28:10.283Z,634.00
2022-11-10T07:29:10.278Z,562.00
2022-11-10T07:30:10.266Z,647.00
2022-11-10T07:31:10.285Z,570.00
2022-11-10T07:32:10.280Z,727.00
2022-11-10T07:33:10.254Z,557.00
2022-11-10T07:34:10.236Z,510.00
2022-11-10T07:35:10.242Z,866.00
2022-11-10T07:36:10.249Z,737.00
2022-11-10T07:37:10.221Z,480.00
2022-11-10T07:38:10.208Z,440.00
2022-11-10T07:39:10.206Z,1031.00
2022-11-10T07:40:10.164Z,745.00
2022-11-10T07:41:10.190Z,683.00
2022-11-10T07:42:10.215Z,729.00
2022-11-10T07:43:10.147Z,586.00
2022-11-10T07:44:10.154Z,924.00
2022-11-10T07:45:10.143Z,811.00
2022-11-10T07:46:10.102Z,689.00
2022-11-10T07:47:10.107Z,772.00
2022-11-10T07:48:10.106Z,840.00
2022-11-10T07:49:10.095Z,750.00
2022-11-10T07:50:10.075Z,812.00
2022-11-10T07:51:10.060Z,770.00
2022-11-10T07:52:10.054Z,778.00
2022-11-10T07:53:10.045Z,795.00
2022-11-10T07:54:10.047Z,777.00
2022-11-10T07:55:10.025Z,780.00
2022-11-10T07:56:10.038Z,812.00
2022-11-10T07:57:10.035Z,825.00
2022-11-10T07:58:09.977Z,838.00
2022-11-10T07:59:10.014Z,834.00
2022-11-10T08:00:09.993Z,830.00
2022-11-10T08:01:09.962Z,849.00
2022-11-10T08:02:09.984Z,844.00
2022-11-10T08:03:09.962Z,860.00
2022-11-10T08:04:09.962Z,871.00
2022-11-10T08:05:09.973Z,890.00
2022-11-10T08:06:09.938Z,890.00
2022-11-10T08:07:10.006Z,845.00
2022-11-10T08:08:09.890Z,863.00
2022-11-10T08:09:09.895Z,870.00
2022-11-10T08:10:09.871Z,932.00
2022-11-10T08:11:09.915Z,944.00
2022-11-10T08:12:09.852Z,876.00
2022-11-10T08:13:09.839Z,894.00
2022-11-10T08:14:09.825Z,922.00
2022-11-10T08:15:09.881Z,910.00
2022-11-10T08:16:09.830Z,919.00
2022-11-10T08:17:09.819Z,929.00
2022-11-10T08:18:09.787Z,922.00
2022-11-10T08:19:09.764Z,937.00
2022-11-10T08:20:09.805Z,952.00
2022-11-10T08:21:09.821Z,910.00
2022-11-10T08:22:09.784Z,888.00
2022-11-10T08:23:09.747Z,988.00
2022-11-10T08:24:09.736Z,1004.00
2022-11-10T08:25:09.726Z,974.00
2022-11-10T08:26:09.709Z,942.00
2022-11-10T08:27:09.800Z,1013.00
2022-11-10T08:28:09.690Z,982.00
2022-11-10T08:29:09.701Z,976.00
2022-11-10T08:30:09.696Z,1051.00
2022-11-10T08:31:09.711Z,1007.00
2022-11-10T08:32:09.635Z,1002.00
2022-11-10T08:33:09.636Z,1046.00
2022-11-10T08:34:09.636Z,1048.00
2022-11-10T08:35:09.618Z,998.00
2022-11-10T08:36:09.596Z,1154.00
2022-11-10T08:37:09.592Z,1057.00
2022-11-10T08:38:10.020Z,1150.00
2022-11-10T08:39:09.598Z,1111.00
2022-11-10T08:40:09.539Z,1124.00
2022-11-10T08:41:09.773Z,1126.00
2022-11-10T08:42:09.542Z,1171.00
2022-11-10T08:43:09.567Z,1070.00
2022-11-10T08:44:11.210Z,1072.00
2022-11-10T08:45:09.498Z,1221.00
2022-11-10T08:46:09.516Z,1138.00
2022-11-10T08:47:09.502Z,1093.00
2022-11-10T08:48:09.538Z,1120.00
2022-11-10T08:49:10.429Z,926.00
2022-11-10T08:50:09.478Z,1191.00
2022-11-10T08:51:09.449Z,1361.00
2022-11-10T08:52:09.462Z,1095.00
2022-11-10T08:53:09.446Z,1682.00
2022-11-10T08:54:09.419Z,824.00
2022-11-10T08:55:09.423Z,1241.00
2022-11-10T08:56:09.393Z,1313.00
2022-11-10T08:57:09.401Z,1336.00
2022-11-10T08:58:09.455Z,1549.00
2022-11-10T08:59:09.515Z,1648.00
2022-11-10T09:00:10.328Z,1762.00
2022-11-10T09:01:10.333Z,1040.00
2022-11-10T09:02:09.374Z,1028.00
2022-11-10T09:03:09.348Z,1317.00
2022-11-10T09:04:10.006Z,1252.00
2022-11-10T09:05:09.947Z,1619.00
2022-11-10T09:06:09.355Z,1353.00
2022-11-10T09:07:09.403Z,1352.00
2022-11-10T09:08:09.256Z,1358.00
2022-11-10T09:09:09.360Z,1272.00
2022-11-10T09:10:09.300Z,1300.00
2022-11-10T09:11:09.267Z,1339.00
2022-11-10T09:12:09.497Z,1262.00
2022-11-10T09:13:09.263Z,1270.00
2022-11-10T09:14:09.526Z,1242.00
2022-11-10T09:15:09.261Z,1283.00
2022-11-10T09:16:09.236Z,1351.00
2022-11-10T09:17:09.266Z,1332.00
2022-11-10T09:18:09.208Z,1214.00
2022-11-10T09:19:09.178Z,1204.00
2022-11-10T09:20:09.568Z,1408.00
2022-11-10T09:21:09.138Z,1313.00
2022-11-10T09:22:09.135Z,1264.00
2022-11-10T09:23:09.166Z,1332.00
2022-11-10T09:24:09.114Z,1915.00
2022-11-10T09:25:09.113Z,613.00
2022-11-10T09:26:09.113Z,1344.00
2022-11-10T09:27:09.083Z,1219.00
2022-11-10T09:28:09.958Z,1838.00
2022-11-10T09:29:09.099Z,410.00
2022-11-10T09:30:13.107Z,1921.00
2022-11-10T09:31:09.075Z,436.00
2022-11-10T09:32:09.047Z,1864.00
2022-11-10T09:33:09.035Z,806.00
2022-11-10T09:34:09.025Z,1480.00
2022-11-10T09:35:08.984Z,1298.00
2022-11-10T09:36:09.033Z,1318.00
2022-11-10T09:37:08.991Z,1466.00
2022-11-10T09:38:08.994Z,1457.00
2022-11-10T09:39:08.943Z,1410.00
2022-11-10T09:40:12.778Z,1442.00
2022-11-10T09:41:08.939Z,1414.00
2022-11-10T09:42:08.973Z,1348.00
2022-11-10T09:43:08.915Z,1407.00
2022-11-10T09:44:08.921Z,1375.00
2022-11-10T09:45:08.982Z,1408.00
2022-11-10T09:46:08.910Z,1421.00
2022-11-10T09:47:12.091Z,1528.00
2022-11-10T09:48:08.866Z,1349.00
2022-11-10T09:49:08.850Z,1432.00
2022-11-10T09:50:08.841Z,1371.00
2022-11-10T09:51:08.857Z,1463.00
2022-11-10T09:52:08.882Z,1480.00
2022-11-10T09:53:08.847Z,1518.00
2022-11-10T09:54:08.845Z,1447.00
2022-11-10T09:55:08.777Z,1433.00
2022-11-10T09:56:08.803Z,1545.00
2022-11-10T09:57:08.807Z,1434.00
2022-11-10T09:58:08.767Z,1450.00
2022-11-10T09:59:08.750Z,1546.00
2022-11-10T10:00:08.745Z,1587.00
2022-11-10T10:01:08.829Z,1240.00
2022-11-10T10:02:08.779Z,1501.00
2022-11-10T10:03:08.700Z,1497.00
2022-11-10T10:04:08.738Z,1515.00
2022-11-10T10:05:08.706Z,1538.00
2022-11-10T10:06:08.683Z,1465.00
2022-11-10T10:07:11.574Z,1416.00
2022-11-10T10:08:08.660Z,1447.00
2022-11-10T10:09:08.632Z,1454.00
2022-11-10T10:10:11.848Z,1354.00
2022-11-10T10:11:08.712Z,1332.00
2022-11-10T10:12:08.672Z,1460.00
2022-11-10T10:13:08.604Z,1415.00
2022-11-10T10:14:08.665Z,1560.00
2022-11-10T10:15:08.609Z,1369.00
2022-11-10T10:16:08.687Z,1673.00
2022-11-10T10:17:08.565Z,1290.00
2022-11-10T10:18:08.579Z,1457.00
2022-11-10T10:19:08.537Z,1361.00
2022-11-10T10:20:08.581Z,1619.00
2022-11-10T10:21:08.517Z,1487.00
2022-11-10T10:22:08.529Z,1504.00
2022-11-10T10:23:08.526Z,1449.00
2022-11-10T10:24:12.805Z,1543.00
2022-11-10T10:25:08.498Z,1451.00
2022-11-10T10:26:08.489Z,1803.00
2022-11-10T10:27:08.454Z,1593.00
2022-11-10T10:28:08.459Z,1448.00
2022-11-10T10:29:08.430Z,1829.00
2022-11-10T10:30:08.441Z,1423.00
2022-11-10T10:31:08.421Z,1584.00
2022-11-10T10:32:08.400Z,1533.00
2022-11-10T10:33:08.398Z,1466.00
2022-11-10T10:34:08.402Z,1502.00
2022-11-10T10:35:08.371Z,1628.00
2022-11-10T10:36:08.369Z,1534.00
2022-11-10T10:37:08.342Z,1568.00
2022-11-10T10:38:08.371Z,1449.00
2022-11-10T10:39:08.366Z,1422.00
2022-11-10T10:40:08.338Z,1473.00
2022-11-10T10:41:08.317Z,1528.00
2022-11-10T10:42:08.299Z,1700.00
2022-11-10T10:43:08.282Z,1564.00
2022-11-10T10:44:08.310Z,1427.00
2022-11-10T10:45:08.381Z,1759.00
2022-11-10T10:46:08.252Z,1586.00
2022-11-10T10:47:08.286Z,1508.00
2022-11-10T10:48:08.280Z,1603.00
2022-11-10T10:49:27.302Z,1549.00
2022-11-10T10:50:08.250Z,1573.00
2022-11-10T10:51:08.215Z,1453.00
2022-11-10T10:52:08.203Z,1514.00
2022-11-10T10:53:08.173Z,1603.00
2022-11-10T10:54:08.407Z,1496.00
2022-11-10T10:55:08.184Z,1430.00
2022-11-10T10:56:08.193Z,1556.00
2022-11-10T10:57:08.144Z,1563.00
2022-11-10T10:58:08.205Z,1644.00
2022-11-10T10:59:08.107Z,1414.00
2022-11-10T11:00:08.125Z,1646.00
2022-11-10T11:01:08.139Z,1444.00
2022-11-10T11:02:08.136Z,1540.00
2022-11-10T11:03:08.059Z,1223.00
2022-11-10T11:04:08.097Z,1961.00
2022-11-10T11:05:08.074Z,1873.00
2022-11-10T11:06:08.065Z,1493.00
2022-11-10T11:07:08.127Z,1708.00
2022-11-10T11:08:08.874Z,1547.00
2022-11-10T11:09:08.022Z,1062.00
2022-11-10T11:10:08.029Z,1511.00
2022-11-10T11:11:07.991Z,2638.00
2022-11-10T11:12:07.992Z,830.00
2022-11-10T11:13:07.961Z,1697.00
2022-11-10T11:14:08.022Z,1699.00
2022-11-10T11:15:07.995Z,1776.00
2022-11-10T11:16:07.973Z,1569.00
2022-11-10T11:17:08.028Z,1682.00
2022-11-10T11:18:07.958Z,1526.00
2022-11-10T11:19:07.905Z,1780.00
2022-11-10T11:20:07.957Z,1482.00
2022-11-10T11:21:07.933Z,1715.00
2022-11-10T11:22:07.906Z,2462.00
2022-11-10T11:23:07.883Z,1051.00
2022-11-10T11:24:07.874Z,541.00
2022-11-10T11:25:07.857Z,2361.00
2022-11-10T11:26:07.876Z,513.00
2022-11-10T11:27:07.851Z,2016.00
2022-11-10T11:28:07.861Z,772.00
2022-11-10T11:29:07.791Z,1497.00
2022-11-10T11:30:07.799Z,2829.00
2022-11-10T11:31:07.802Z,1831.00
2022-11-10T11:32:07.803Z,473.00
2022-11-10T11:33:07.758Z,1130.00
2022-11-10T11:34:07.835Z,2599.00
2022-11-10T11:35:07.766Z,578.00
2022-11-10T11:36:07.765Z,2718.00
2022-11-10T11:37:12.054Z,555.00
2022-11-10T11:38:07.759Z,1505.00
2022-11-10T11:39:07.699Z,2619.00
2022-11-10T11:40:07.721Z,1378.00
2022-11-10T11:41:07.686Z,1528.00
2022-11-10T11:42:07.683Z,784.00
2022-11-10T11:43:07.765Z,1943.00
2022-11-10T11:44:07.669Z,1889.00
2022-11-10T11:45:07.686Z,1894.00
2022-11-10T11:46:07.654Z,1579.00
2022-11-10T11:47:07.711Z,776.00
2022-11-10T11:48:07.613Z,1698.00
2022-11-10T11:49:07.597Z,1969.00
2022-11-10T11:50:07.624Z,1503.00
2022-11-10T11:51:07.635Z,1357.00
2022-11-10T11:52:07.590Z,1716.00
2022-11-10T11:53:07.566Z,1444.00
2022-11-10T11:54:07.593Z,1716.00
2022-11-10T11:55:07.536Z,1732.00
2022-11-10T11:56:07.523Z,1483.00
2022-11-10T11:57:07.515Z,988.00
2022-11-10T11:58:07.509Z,1692.00
2022-11-10T11:59:07.516Z,1585.00
2022-11-10T12:00:07.489Z,1444.00
2022-11-10T12:01:07.535Z,1245.00
2022-11-10T12:02:07.566Z,429.00
2022-11-10T12:03:07.477Z,2416.00
2022-11-10T12:04:07.458Z,1792.00
2022-11-10T12:05:07.446Z,1496.00
2022-11-10T12:06:07.493Z,1261.00
2022-11-10T12:07:07.513Z,403.00
2022-11-10T12:08:07.485Z,986.00
2022-11-10T12:09:07.387Z,2205.00
2022-11-10T12:10:07.523Z,454.00
2022-11-10T12:11:07.365Z,1451.00
2022-11-10T12:12:07.421Z,1532.00
2022-11-10T12:13:07.368Z,1547.00
2022-11-10T12:14:07.371Z,1488.00
2022-11-10T12:15:07.445Z,1736.00
2022-11-10T12:16:07.364Z,1771.00
2022-11-10T12:17:07.337Z,1155.00
2022-11-10T12:18:07.309Z,376.00
2022-11-10T12:19:07.296Z,1922.00
2022-11-10T12:20:07.277Z,1261.00
2022-11-10T12:21:07.257Z,1171.00
2022-11-10T12:22:07.339Z,1159.00
2022-11-10T12:23:07.288Z,1103.00
2022-11-10T12:24:10.145Z,1053.00
2022-11-10T12:25:07.212Z,1105.00
2022-11-10T12:26:07.235Z,1237.00
2022-11-10T12:27:07.239Z,1231.00
2022-11-10T12:28:07.230Z,420.00
2022-11-10T12:29:07.189Z,1803.00
2022-11-10T12:30:07.189Z,1285.00
2022-11-10T12:31:07.161Z,384.00
2022-11-10T12:32:07.150Z,1982.00
2022-11-10T12:33:07.162Z,1436.00
2022-11-10T12:34:07.153Z,696.00
2022-11-10T12:35:07.101Z,1868.00
2022-11-10T12:36:07.119Z,569.00
2022-11-10T12:37:07.094Z,1425.00
2022-11-10T12:38:07.088Z,1438.00
2022-11-10T12:39:07.094Z,1516.00
2022-11-10T12:40:07.138Z,1429.00
2022-11-10T12:41:07.054Z,1562.00
2022-11-10T12:42:07.034Z,1750.00
2022-11-10T12:43:07.013Z,797.00
2022-11-10T12:44:07.073Z,1573.00
2022-11-10T12:45:07.205Z,435.00